Time;durP1;ratioP1;P1;durP2;ratioP2;P2;SDS_P1;SDS_P2;PMS_P1;PMS_P2;Temp;Humidity;BMP_temperature;BMP_pressure;BME280_temperature;BME280_humidity;BME280_pressure;Samples;Min_cycle;Max_cycle;Signal;HPM_P1;HPM_P2
2023/11/28 00:01:33;;;;;;;3.78;2.20;;;;;;;;;;5042412;28;20048;-61
2023/11/28 00:03:59;;;;;;;3.03;2.20;;;;;;;;;;5044487;28;20141;-60
2023/11/28 00:06:24;;;;;;;2.88;2.08;;;;;;;;;;5041883;28;20609;-60
2023/11/28 00:08:50;;;;;;;3.72;2.22;;;;;;;;;;5042645;28;20051;-60
2023/11/28 00:11:16;;;;;;;3.42;2.25;;;;;;;;;;5042971;28;20021;-60
2023/11/28 00:13:45;;;;;;;3.80;2.25;;;;;;;;;;5042271;28;20119;-60
2023/11/28 00:16:11;;;;;;;3.90;1.90;;;;;;;;;;5038362;28;20036;-61
2023/11/28 00:18:39;;;;;;;3.25;2.10;;;;;;;;;;5042606;28;20075;-60
2023/11/28 00:21:04;;;;;;;3.60;2.17;;;;;;;;;;5042073;28;20027;-60
2023/11/28 00:23:30;;;;;;;3.03;2.20;;;;;;;;;;5043443;28;20028;-61
2023/11/28 00:25:55;;;;;;;3.13;2.05;;;;;;;;;;5039604;28;20082;-61
2023/11/28 00:28:20;;;;;;;3.53;2.17;;;;;;;;;;5042609;28;20024;-60
2023/11/28 00:30:46;;;;;;;3.92;2.50;;;;;;;;;;5043366;28;20501;-60
2023/11/28 00:33:11;;;;;;;3.85;2.38;;;;;;;;;;5041836;28;20487;-60
2023/11/28 00:35:37;;;;;;;3.50;2.20;;;;;;;;;;5042117;28;25757;-60
2023/11/28 00:38:06;;;;;;;3.05;2.08;;;;;;;;;;5040275;28;20041;-60
2023/11/28 00:40:32;;;;;;;3.92;2.30;;;;;;;;;;5043244;28;20029;-61
2023/11/28 00:42:58;;;;;;;3.10;1.98;;;;;;;;;;5041654;28;20040;-61
2023/11/28 00:45:25;;;;;;;3.35;2.35;;;;;;;;;;5040469;28;20032;-60
2023/11/28 00:47:53;;;;;;;4.07;2.47;;;;;;;;;;5040847;28;20119;-61
2023/11/28 00:50:18;;;;;;;3.15;2.08;;;;;;;;;;5041916;28;20179;-60
2023/11/28 00:52:44;;;;;;;3.20;2.25;;;;;;;;;;5041986;28;20426;-61
2023/11/28 00:55:10;;;;;;;3.63;2.25;;;;;;;;;;5034719;28;20045;-60
2023/11/28 00:57:36;;;;;;;3.38;2.13;;;;;;;;;;5030909;28;20531;-61
2023/11/28 01:00:02;;;;;;;3.33;2.17;;;;;;;;;;5017874;28;20561;-60
2023/11/28 01:02:31;;;;;;;3.88;2.10;;;;;;;;;;5033235;28;20052;-59
2023/11/28 01:04:57;;;;;;;3.58;2.33;;;;;;;;;;5041344;28;20036;-60
2023/11/28 01:07:26;;;;;;;3.10;1.83;;;;;;;;;;5041236;28;20045;-60
2023/11/28 01:09:56;;;;;;;2.90;2.17;;;;;;;;;;5041810;28;20083;-58
2023/11/28 01:12:21;;;;;;;3.25;1.98;;;;;;;;;;5039606;28;20557;-61
2023/11/28 01:14:47;;;;;;;3.13;1.92;;;;;;;;;;5042147;28;20128;-61
2023/11/28 01:17:12;;;;;;;3.95;2.33;;;;;;;;;;5040540;28;20037;-61
2023/11/28 01:19:38;;;;;;;3.67;2.22;;;;;;;;;;5041914;28;20037;-61
2023/11/28 01:22:03;;;;;;;3.38;2.00;;;;;;;;;;5036993;28;20026;-61
2023/11/28 01:24:29;;;;;;;2.53;1.92;;;;;;;;;;5045220;28;20839;-61
2023/11/28 01:26:54;;;;;;;2.90;2.00;;;;;;;;;;5046929;28;20240;-61
2023/11/28 01:29:21;;;;;;;3.35;1.95;;;;;;;;;;5045009;28;20037;-61
2023/11/28 01:31:46;;;;;;;3.78;2.22;;;;;;;;;;5044220;28;20037;-60
2023/11/28 01:34:17;;;;;;;3.55;2.00;;;;;;;;;;5046494;28;20522;-61
2023/11/28 01:36:46;;;;;;;3.00;2.00;;;;;;;;;;5044944;28;20098;-61
2023/11/28 01:39:12;;;;;;;2.95;2.10;;;;;;;;;;5038105;28;20033;-60
2023/11/28 01:41:42;;;;;;;3.50;2.25;;;;;;;;;;5044773;28;20043;-60
2023/11/28 01:44:07;;;;;;;3.03;2.00;;;;;;;;;;5037932;28;20167;-60
2023/11/28 01:46:34;;;;;;;4.13;2.20;;;;;;;;;;5045351;28;20598;-59
2023/11/28 01:48:59;;;;;;;3.00;1.90;;;;;;;;;;5043583;28;20041;-59
2023/11/28 01:51:24;;;;;;;4.22;2.33;;;;;;;;;;5043077;28;20112;-59
2023/11/28 01:53:50;;;;;;;3.78;2.30;;;;;;;;;;5040620;28;20037;-60
2023/11/28 01:56:15;;;;;;;2.80;1.95;;;;;;;;;;5046581;28;20172;-60
2023/11/28 01:58:43;;;;;;;3.55;2.30;;;;;;;;;;5040816;28;20037;-58
2023/11/28 02:01:09;;;;;;;2.63;1.90;;;;;;;;;;5043717;28;20399;-60
2023/11/28 02:03:36;;;;;;;2.88;1.70;;;;;;;;;;5042413;28;20059;-60
2023/11/28 02:06:03;;;;;;;3.20;2.20;;;;;;;;;;5041675;28;20029;-59
2023/11/28 02:08:28;;;;;;;3.25;2.15;;;;;;;;;;5042061;28;20043;-59
2023/11/28 02:10:53;;;;;;;3.20;1.90;;;;;;;;;;5045855;28;20120;-59
2023/11/28 02:13:19;;;;;;;3.22;2.05;;;;;;;;;;5041894;28;20071;-60
2023/11/28 02:15:44;;;;;;;3.15;1.92;;;;;;;;;;5044571;28;20079;-60
2023/11/28 02:18:10;;;;;;;3.40;2.00;;;;;;;;;;5042075;28;20072;-59
2023/11/28 02:20:40;;;;;;;3.13;1.92;;;;;;;;;;5045546;28;20480;-59
2023/11/28 02:23:09;;;;;;;2.72;2.00;;;;;;;;;;5045722;28;20119;-59
2023/11/28 02:25:47;;;;;;;2.83;1.92;;;;;;;;;;5041457;28;20036;-59
2023/11/28 02:28:19;;;;;;;2.47;1.60;;;;;;;;;;5044191;28;20036;-59
2023/11/28 02:30:47;;;;;;;2.80;1.73;;;;;;;;;;5044185;28;20138;-59
2023/11/28 02:33:13;;;;;;;3.08;1.90;;;;;;;;;;5043612;28;20563;-58
2023/11/28 02:35:42;;;;;;;3.22;1.95;;;;;;;;;;5043386;28;20132;-59
2023/11/28 02:38:08;;;;;;;3.55;2.15;;;;;;;;;;5044267;28;20115;-59
2023/11/28 02:40:34;;;;;;;3.17;1.92;;;;;;;;;;5040684;28;20052;-61
2023/11/28 02:43:00;;;;;;;2.80;1.90;;;;;;;;;;5042170;28;20060;-59
2023/11/28 02:45:28;;;;;;;2.58;1.98;;;;;;;;;;5041623;28;20052;-60
2023/11/28 02:47:54;;;;;;;2.83;1.98;;;;;;;;;;5045410;28;20458;-60
2023/11/28 02:50:19;;;;;;;3.05;1.98;;;;;;;;;;5044278;28;20048;-60
2023/11/28 02:52:44;;;;;;;2.15;1.80;;;;;;;;;;5043323;28;20033;-60
2023/11/28 02:55:13;;;;;;;2.10;1.60;;;;;;;;;;5043731;28;20507;-60
2023/11/28 02:57:38;;;;;;;3.13;1.88;;;;;;;;;;5044561;28;20047;-60
2023/11/28 03:00:05;;;;;;;3.63;2.05;;;;;;;;;;5043827;28;20123;-60
2023/11/28 03:02:30;;;;;;;2.97;1.70;;;;;;;;;;5042376;28;20044;-59
2023/11/28 03:04:55;;;;;;;3.05;1.73;;;;;;;;;;5045761;28;20033;-59
2023/11/28 03:07:25;;;;;;;2.80;1.90;;;;;;;;;;5032776;28;20065;-59
2023/11/28 03:09:50;;;;;;;2.30;1.80;;;;;;;;;;5044008;28;20558;-61
2023/11/28 03:12:15;;;;;;;2.72;1.77;;;;;;;;;;5044951;28;20431;-61
2023/11/28 03:14:41;;;;;;;2.90;1.95;;;;;;;;;;5050398;28;20049;-61
2023/11/28 03:17:06;;;;;;;3.10;1.85;;;;;;;;;;5042731;28;20694;-60
2023/11/28 03:19:31;;;;;;;2.53;1.65;;;;;;;;;;5040709;28;20068;-60
2023/11/28 03:21:59;;;;;;;2.92;1.70;;;;;;;;;;5042044;28;20055;-60
2023/11/28 03:24:25;;;;;;;1.98;1.60;;;;;;;;;;5050543;28;20037;-60
2023/11/28 03:26:50;;;;;;;2.40;1.70;;;;;;;;;;5044268;28;20037;-60
2023/11/28 03:29:18;;;;;;;3.17;1.70;;;;;;;;;;5042544;28;20040;-60
2023/11/28 03:31:44;;;;;;;2.70;1.70;;;;;;;;;;5042018;28;20348;-60
2023/11/28 03:34:09;;;;;;;2.78;1.70;;;;;;;;;;5042653;28;20020;-59
2023/11/28 03:36:36;;;;;;;2.65;1.65;;;;;;;;;;5051371;28;20556;-60
2023/11/28 03:39:01;;;;;;;2.33;1.60;;;;;;;;;;5040160;28;20037;-59
2023/11/28 03:41:26;;;;;;;2.63;1.63;;;;;;;;;;5041168;28;20025;-59
2023/11/28 03:43:52;;;;;;;2.50;1.63;;;;;;;;;;5030758;28;20029;-60
2023/11/28 03:46:17;;;;;;;2.80;1.80;;;;;;;;;;5033720;28;20033;-59
2023/11/28 03:48:42;;;;;;;2.33;1.60;;;;;;;;;;5040011;28;20548;-59
2023/11/28 03:51:08;;;;;;;2.28;1.40;;;;;;;;;;5041559;28;20021;-59
2023/11/28 03:53:34;;;;;;;2.58;1.60;;;;;;;;;;5043309;28;20025;-58
2023/11/28 03:56:06;;;;;;;2.83;1.70;;;;;;;;;;5042897;28;20044;-59
2023/11/28 03:58:33;;;;;;;3.33;1.65;;;;;;;;;;5037849;28;20033;-59
2023/11/28 04:00:58;;;;;;;2.75;1.50;;;;;;;;;;5033529;28;20133;-59
2023/11/28 04:03:28;;;;;;;2.08;1.42;;;;;;;;;;5052095;28;20072;-59
2023/11/28 04:05:53;;;;;;;2.17;1.48;;;;;;;;;;5042312;28;20041;-60
2023/11/28 04:08:22;;;;;;;2.25;1.48;;;;;;;;;;5043969;28;20048;-60
2023/11/28 04:10:47;;;;;;;2.00;1.40;;;;;;;;;;5043686;28;20033;-59
2023/11/28 04:13:13;;;;;;;2.42;1.63;;;;;;;;;;5042030;28;20048;-60
2023/11/28 04:15:39;;;;;;;2.35;1.52;;;;;;;;;;5038687;28;20609;-59
2023/11/28 04:18:04;;;;;;;2.50;1.75;;;;;;;;;;5040623;28;20127;-58
2023/11/28 04:20:30;;;;;;;1.95;1.30;;;;;;;;;;5043284;28;20037;-59
2023/11/28 04:22:55;;;;;;;2.33;1.48;;;;;;;;;;5042931;28;20025;-58
2023/11/28 04:25:23;;;;;;;2.63;1.50;;;;;;;;;;5041565;28;20053;-60
2023/11/28 04:27:48;;;;;;;2.63;1.50;;;;;;;;;;5013253;28;20619;-59
2023/11/28 04:30:13;;;;;;;2.30;1.60;;;;;;;;;;5017831;28;20045;-61
2023/11/28 04:32:39;;;;;;;2.45;1.55;;;;;;;;;;5015011;28;20045;-59
2023/11/28 04:35:05;;;;;;;2.38;1.52;;;;;;;;;;5031607;28;20079;-59
2023/11/28 04:37:33;;;;;;;2.38;1.48;;;;;;;;;;5039082;28;20423;-59
2023/11/28 04:39:59;;;;;;;2.20;1.50;;;;;;;;;;5039713;28;20454;-58
2023/11/28 04:42:24;;;;;;;2.08;1.45;;;;;;;;;;5042380;28;20036;-59
2023/11/28 04:44:49;;;;;;;2.58;1.67;;;;;;;;;;5036403;28;20566;-61
2023/11/28 04:47:15;;;;;;;2.20;1.42;;;;;;;;;;5040731;28;20039;-61
2023/11/28 04:49:43;;;;;;;2.10;1.30;;;;;;;;;;5043806;28;21219;-61
2023/11/28 04:52:08;;;;;;;2.35;1.15;;;;;;;;;;5039581;28;20041;-58
2023/11/28 04:54:33;;;;;;;2.05;1.30;;;;;;;;;;5043187;28;20139;-60
2023/11/28 04:56:59;;;;;;;2.50;1.45;;;;;;;;;;5042263;28;20812;-61
2023/11/28 04:59:24;;;;;;;2.10;1.27;;;;;;;;;;5041778;28;20124;-59
2023/11/28 05:01:49;;;;;;;1.70;1.40;;;;;;;;;;5033642;28;20029;-59
2023/11/28 05:04:15;;;;;;;2.30;1.60;;;;;;;;;;5040618;28;20064;-59
2023/11/28 05:06:40;;;;;;;2.10;1.30;;;;;;;;;;5040796;28;20629;-61
2023/11/28 05:09:06;;;;;;;2.75;1.60;;;;;;;;;;5041505;28;20036;-61
2023/11/28 05:11:32;;;;;;;1.95;1.40;;;;;;;;;;5042324;28;20078;-60
2023/11/28 05:13:58;;;;;;;1.77;1.30;;;;;;;;;;5032902;28;20029;-60
2023/11/28 05:16:27;;;;;;;2.30;1.38;;;;;;;;;;5017134;28;20054;-60
2023/11/28 05:18:53;;;;;;;2.47;1.50;;;;;;;;;;5005549;28;20464;-60
2023/11/28 05:21:18;;;;;;;2.42;1.23;;;;;;;;;;5014751;28;20470;-60
2023/11/28 05:23:45;;;;;;;2.65;1.48;;;;;;;;;;5015720;28;20037;-61
2023/11/28 05:26:10;;;;;;;2.03;1.17;;;;;;;;;;5014358;28;20071;-62
2023/11/28 05:28:35;;;;;;;4.05;1.40;;;;;;;;;;5021507;28;20387;-59
2023/11/28 05:31:03;;;;;;;3.22;1.45;;;;;;;;;;5012575;28;20034;-59
2023/11/28 05:33:28;;;;;;;2.17;1.30;;;;;;;;;;5010269;28;21039;-59
2023/11/28 05:35:56;;;;;;;1.60;1.17;;;;;;;;;;5009802;28;20049;-59
2023/11/28 05:38:22;;;;;;;1.83;1.20;;;;;;;;;;5012642;28;20524;-59
2023/11/28 05:40:47;;;;;;;3.33;1.25;;;;;;;;;;5022346;28;20029;-59
2023/11/28 05:43:15;;;;;;;2.17;1.42;;;;;;;;;;5019773;28;20052;-60
2023/11/28 05:45:41;;;;;;;2.88;1.60;;;;;;;;;;5010808;28;20029;-59
2023/11/28 05:48:06;;;;;;;2.08;1.10;;;;;;;;;;5011600;28;20045;-60
2023/11/28 05:50:32;;;;;;;2.85;1.50;;;;;;;;;;5011675;28;20615;-59
2023/11/28 05:53:00;;;;;;;2.20;1.40;;;;;;;;;;5011453;28;20049;-59
2023/11/28 05:55:25;;;;;;;1.95;1.30;;;;;;;;;;5006462;28;20041;-59
2023/11/28 05:57:53;;;;;;;1.85;1.40;;;;;;;;;;5014174;28;20033;-59
2023/11/28 06:00:19;;;;;;;3.00;1.30;;;;;;;;;;5012214;28;20542;-59
2023/11/28 06:02:47;;;;;;;2.53;1.50;;;;;;;;;;5014301;28;20082;-58
2023/11/28 06:05:12;;;;;;;2.60;1.42;;;;;;;;;;5008328;28;20045;-60
2023/11/28 06:07:42;;;;;;;2.65;1.23;;;;;;;;;;5016019;28;20593;-60
2023/11/28 06:10:10;;;;;;;;;;;;;;;;;;5015122;28;20052;-60
2023/11/28 06:12:42;;;;;;;2.45;1.45;;;;;;;;;;5015675;28;19921;-60
2023/11/28 06:15:07;;;;;;;1.95;1.35;;;;;;;;;;5023687;28;20034;-60
2023/11/28 06:17:33;;;;;;;2.08;1.35;;;;;;;;;;5018022;28;20079;-59
2023/11/28 06:19:58;;;;;;;1.95;1.30;;;;;;;;;;5020587;28;20108;-61
2023/11/28 06:22:24;;;;;;;3.00;1.42;;;;;;;;;;5015496;28;20042;-60
2023/11/28 06:24:52;;;;;;;2.10;1.40;;;;;;;;;;5020818;28;20056;-60
2023/11/28 06:27:17;;;;;;;2.00;1.17;;;;;;;;;;5016133;28;20064;-59
2023/11/28 06:29:43;;;;;;;2.20;1.40;;;;;;;;;;5014288;28;20451;-59
2023/11/28 06:32:12;;;;;;;3.85;1.73;;;;;;;;;;5015206;28;20049;-60
2023/11/28 06:34:39;;;;;;;2.08;1.40;;;;;;;;;;5013401;28;20036;-59
2023/11/28 06:37:04;;;;;;;2.00;1.40;;;;;;;;;;5017618;28;20163;-59
2023/11/28 06:39:33;;;;;;;2.30;1.45;;;;;;;;;;5014567;28;20513;-60
2023/11/28 06:42:00;;;;;;;2.28;1.33;;;;;;;;;;5015180;28;20318;-60
2023/11/28 06:44:29;;;;;;;2.42;1.40;;;;;;;;;;5027411;28;20090;-60
2023/11/28 06:46:55;;;;;;;3.22;1.50;;;;;;;;;;5016285;28;20080;-60
2023/11/28 06:49:20;;;;;;;2.55;1.27;;;;;;;;;;5007287;28;20037;-58
2023/11/28 06:51:46;;;;;;;2.90;1.58;;;;;;;;;;5013402;28;20041;-60
2023/11/28 06:54:13;;;;;;;2.08;1.20;;;;;;;;;;5013043;28;20538;-59
2023/11/28 06:56:38;;;;;;;2.35;1.52;;;;;;;;;;5014243;28;20102;-59
2023/11/28 06:59:04;;;;;;;2.22;1.40;;;;;;;;;;5022117;28;20076;-59
2023/11/28 07:01:29;;;;;;;2.60;1.40;;;;;;;;;;5017578;28;20064;-59
2023/11/28 07:03:54;;;;;;;2.97;1.40;;;;;;;;;;5015136;28;20194;-59
2023/11/28 07:06:23;;;;;;;2.13;1.40;;;;;;;;;;5013561;28;20076;-60
2023/11/28 07:08:49;;;;;;;3.22;1.30;;;;;;;;;;5013961;28;20042;-59
2023/11/28 07:11:20;;;;;;;2.05;1.40;;;;;;;;;;5014068;28;20045;-59
2023/11/28 07:13:47;;;;;;;2.67;1.40;;;;;;;;;;5015519;28;20432;-60
2023/11/28 07:16:12;;;;;;;2.22;1.33;;;;;;;;;;5017225;28;20503;-59
2023/11/28 07:18:37;;;;;;;3.25;1.35;;;;;;;;;;5013841;28;20163;-59
2023/11/28 07:21:05;;;;;;;2.85;1.20;;;;;;;;;;5009898;28;20065;-60
2023/11/28 07:23:33;;;;;;;2.95;1.60;;;;;;;;;;5015753;28;21859;-59
2023/11/28 07:26:01;;;;;;;1.70;1.20;;;;;;;;;;5013638;28;20040;-60
2023/11/28 07:28:26;;;;;;;2.13;1.27;;;;;;;;;;5022084;28;20040;-59
2023/11/28 07:30:52;;;;;;;3.03;1.15;;;;;;;;;;5019952;28;20037;-59
2023/11/28 07:33:18;;;;;;;2.22;1.35;;;;;;;;;;5016026;28;20518;-57
2023/11/28 07:35:46;;;;;;;3.30;1.50;;;;;;;;;;5016648;28;22796;-60
2023/11/28 07:38:12;;;;;;;1.92;1.15;;;;;;;;;;5018257;28;21024;-61
2023/11/28 07:40:39;;;;;;;2.60;1.58;;;;;;;;;;5014873;28;20038;-60
2023/11/28 07:43:04;;;;;;;2.40;1.38;;;;;;;;;;5007280;28;20056;-60
2023/11/28 07:45:30;;;;;;;2.95;1.30;;;;;;;;;;5015949;28;20017;-61
2023/11/28 07:47:58;;;;;;;2.22;1.40;;;;;;;;;;5018046;28;20071;-59
2023/11/28 07:50:24;;;;;;;2.97;1.20;;;;;;;;;;5009583;28;21183;-59
2023/11/28 07:52:53;;;;;;;2.72;1.73;;;;;;;;;;5020382;28;20013;-58
2023/11/28 07:55:21;;;;;;;3.03;1.50;;;;;;;;;;5017664;28;20032;-60
2023/11/28 07:57:46;;;;;;;4.03;1.95;;;;;;;;;;5013656;28;20032;-60
2023/11/28 08:00:12;;;;;;;4.55;1.60;;;;;;;;;;5015408;28;20037;-61
2023/11/28 08:02:37;;;;;;;3.20;2.00;;;;;;;;;;5017565;28;20071;-61
2023/11/28 08:05:03;;;;;;;2.58;1.60;;;;;;;;;;5008858;28;20427;-60
2023/11/28 08:07:32;;;;;;;3.25;1.90;;;;;;;;;;5015874;28;20084;-61
2023/11/28 08:09:58;;;;;;;2.78;1.70;;;;;;;;;;5017509;28;20051;-61
2023/11/28 08:12:28;;;;;;;2.67;1.48;;;;;;;;;;5012238;28;20037;-61
2023/11/28 08:14:54;;;;;;;3.50;1.65;;;;;;;;;;5010628;28;20038;-60
2023/11/28 08:17:20;;;;;;;3.40;1.90;;;;;;;;;;5007715;28;20154;-61
2023/11/28 08:19:45;;;;;;;2.90;1.70;;;;;;;;;;5028906;28;20499;-61
2023/11/28 08:22:13;;;;;;;4.10;1.77;;;;;;;;;;5014663;28;20495;-62
2023/11/28 08:24:39;;;;;;;2.75;1.77;;;;;;;;;;5015024;28;20041;-61
2023/11/28 08:27:04;;;;;;;3.45;1.98;;;;;;;;;;5018033;28;20461;-60
2023/11/28 08:29:30;;;;;;;3.05;1.88;;;;;;;;;;5023212;28;20484;-60
2023/11/28 08:31:58;;;;;;;3.22;1.77;;;;;;;;;;5017296;28;20104;-59
2023/11/28 08:34:24;;;;;;;2.55;1.70;;;;;;;;;;5014421;28;20125;-62
2023/11/28 08:36:51;;;;;;;3.08;1.85;;;;;;;;;;5016816;28;20108;-62
2023/11/28 08:39:17;;;;;;;2.60;1.77;;;;;;;;;;5016864;28;20744;-60
2023/11/28 08:41:42;;;;;;;4.68;2.15;;;;;;;;;;5023413;28;20112;-63
2023/11/28 08:44:10;;;;;;;2.90;1.70;;;;;;;;;;5016075;28;20510;-59
2023/11/28 08:46:37;;;;;;;2.92;1.83;;;;;;;;;;5018991;28;20061;-60
2023/11/28 08:49:05;;;;;;;2.42;1.73;;;;;;;;;;5019580;28;20025;-58
2023/11/28 08:51:30;;;;;;;2.47;1.70;;;;;;;;;;5023790;28;20578;-60
2023/11/28 08:53:58;;;;;;;2.90;1.73;;;;;;;;;;5016596;28;20124;-58
2023/11/28 08:56:24;;;;;;;2.83;1.67;;;;;;;;;;5018504;28;20045;-59
2023/11/28 08:58:49;;;;;;;3.47;1.80;;;;;;;;;;5022647;28;20039;-62
2023/11/28 09:01:15;;;;;;;2.45;1.70;;;;;;;;;;5038219;28;20120;-60
2023/11/28 09:03:40;;;;;;;2.60;1.75;;;;;;;;;;5034028;28;20041;-60
2023/11/28 09:06:07;;;;;;;2.70;1.63;;;;;;;;;;5042064;28;20143;-60
2023/11/28 09:08:32;;;;;;;3.67;2.05;;;;;;;;;;5033407;28;20037;-60
2023/11/28 09:10:57;;;;;;;2.83;1.80;;;;;;;;;;5038077;28;20033;-61
2023/11/28 09:13:23;;;;;;;2.33;1.83;;;;;;;;;;5039279;28;20932;-59
2023/11/28 09:15:48;;;;;;;3.03;1.88;;;;;;;;;;5038930;28;20061;-58
2023/11/28 09:18:16;;;;;;;3.17;1.90;;;;;;;;;;5040168;28;20040;-60
2023/11/28 09:20:42;;;;;;;3.45;1.85;;;;;;;;;;5040759;28;20510;-60
2023/11/28 09:23:10;;;;;;;3.28;2.03;;;;;;;;;;5036103;28;20064;-60
2023/11/28 09:25:35;;;;;;;2.80;1.98;;;;;;;;;;5038394;28;20633;-60
2023/11/28 09:28:01;;;;;;;3.38;1.98;;;;;;;;;;5039544;28;20097;-60
2023/11/28 09:30:26;;;;;;;2.88;1.80;;;;;;;;;;5038819;28;20103;-60
2023/11/28 09:32:51;;;;;;;3.30;1.83;;;;;;;;;;5039117;28;20089;-60
2023/11/28 09:35:18;;;;;;;2.75;2.20;;;;;;;;;;5039568;28;20064;-60
2023/11/28 09:37:43;;;;;;;4.03;2.08;;;;;;;;;;5038272;28;20056;-60
2023/11/28 09:40:12;;;;;;;3.55;2.10;;;;;;;;;;5039660;28;20387;-59
2023/11/28 09:42:43;;;;;;;3.20;2.00;;;;;;;;;;5031375;28;20057;-59
2023/11/28 09:45:08;;;;;;;3.55;2.03;;;;;;;;;;5033923;28;20037;-59
2023/11/28 09:47:38;;;;;;;2.88;1.92;;;;;;;;;;5040612;28;20037;-59
2023/11/28 09:50:05;;;;;;;4.15;2.10;;;;;;;;;;5039630;28;20037;-59
2023/11/28 09:52:33;;;;;;;3.13;1.92;;;;;;;;;;5042356;28;20063;-61
2023/11/28 09:54:59;;;;;;;3.45;2.28;;;;;;;;;;5039598;28;20037;-60
2023/11/28 09:57:31;;;;;;;3.38;2.17;;;;;;;;;;5041918;28;20055;-62
2023/11/28 09:59:58;;;;;;;2.65;1.90;;;;;;;;;;5032805;28;20503;-59
2023/11/28 10:02:23;;;;;;;3.25;2.38;;;;;;;;;;5007885;28;20530;-60
2023/11/28 10:04:48;;;;;;;3.03;2.13;;;;;;;;;;5015501;28;20101;-59
2023/11/28 10:07:14;;;;;;;3.70;2.08;;;;;;;;;;5012629;28;20534;-59
2023/11/28 10:09:42;;;;;;;3.08;2.05;;;;;;;;;;5020122;28;20029;-59
2023/11/28 10:12:09;;;;;;;5.28;2.28;;;;;;;;;;5024411;28;20105;-60
2023/11/28 10:14:38;;;;;;;12.05;4.00;;;;;;;;;;5022727;28;20033;-60
2023/11/28 10:17:04;;;;;;;21.45;6.97;;;;;;;;;;5011995;28;20060;-60
2023/11/28 10:19:32;;;;;;;39.42;12.38;;;;;;;;;;5021671;28;20477;-59
2023/11/28 10:21:58;;;;;;;43.65;13.73;;;;;;;;;;5012270;28;20072;-60
2023/11/28 10:24:24;;;;;;;37.30;11.60;;;;;;;;;;5027559;28;20190;-59
2023/11/28 10:26:49;;;;;;;29.27;9.80;;;;;;;;;;5016974;28;20124;-59
2023/11/28 10:29:15;;;;;;;35.17;10.38;;;;;;;;;;5027627;28;20104;-59
2023/11/28 10:31:40;;;;;;;26.75;8.75;;;;;;;;;;5012062;28;20512;-59
2023/11/28 10:34:08;;;;;;;30.30;9.05;;;;;;;;;;5019637;28;20705;-59
2023/11/28 10:36:43;;;;;;;26.13;8.27;;;;;;;;;;5020038;28;20126;-61
2023/11/28 10:39:10;;;;;;;23.58;7.63;;;;;;;;;;5013869;28;21891;-64
2023/11/28 10:41:36;;;;;;;26.77;8.13;;;;;;;;;;5022294;28;20068;-59
2023/11/28 10:44:01;;;;;;;21.25;7.22;;;;;;;;;;5015130;28;20069;-59
2023/11/28 10:46:27;;;;;;;20.27;7.35;;;;;;;;;;5017717;28;20556;-59
2023/11/28 10:48:52;;;;;;;24.65;7.30;;;;;;;;;;5019492;28;20056;-60
2023/11/28 10:51:18;;;;;;;22.40;7.40;;;;;;;;;;5015190;28;20363;-60
2023/11/28 10:53:43;;;;;;;20.40;6.93;;;;;;;;;;5023483;28;20037;-59
2023/11/28 10:56:09;;;;;;;20.77;6.60;;;;;;;;;;5016480;28;20081;-60
2023/11/28 10:58:35;;;;;;;19.27;6.50;;;;;;;;;;5024581;28;20535;-59
2023/11/28 11:01:03;;;;;;;17.13;6.15;;;;;;;;;;5033180;28;20040;-60
2023/11/28 11:03:28;;;;;;;16.83;6.53;;;;;;;;;;5022778;28;20211;-61
2023/11/28 11:05:54;;;;;;;16.30;6.40;;;;;;;;;;5024134;28;20596;-59
2023/11/28 11:08:20;;;;;;;13.98;5.68;;;;;;;;;;5014171;28;20549;-60
2023/11/28 11:10:45;;;;;;;18.52;6.22;;;;;;;;;;5023071;28;20033;-60
2023/11/28 11:13:32;;;;;;;16.40;5.97;;;;;;;;;;5018419;28;20100;-62
2023/11/28 11:16:02;;;;;;;14.10;5.78;;;;;;;;;;5014282;28;22068;-59
2023/11/28 11:18:27;;;;;;;;;;;;;;;;;;5013061;28;20025;-60
2023/11/28 11:20:54;;;;;;;14.50;5.00;;;;;;;;;;5015748;28;20228;-59
2023/11/28 11:23:19;;;;;;;12.93;5.68;;;;;;;;;;5023037;28;20025;-59
2023/11/28 11:25:44;;;;;;;12.63;5.43;;;;;;;;;;5011897;28;20387;-59
2023/11/28 11:28:10;;;;;;;14.05;5.63;;;;;;;;;;5009337;28;20167;-59
2023/11/28 11:30:38;;;;;;;14.85;5.38;;;;;;;;;;5017781;28;20037;-60
2023/11/28 11:33:13;;;;;;;14.13;5.07;;;;;;;;;;5011538;28;20102;-60
2023/11/28 11:36:16;;;;;;;11.20;4.95;;;;;;;;;;5018145;28;20046;-60
2023/11/28 11:38:42;;;;;;;9.73;4.63;;;;;;;;;;4991111;28;20121;-59
2023/11/28 11:41:13;;;;;;;11.15;4.65;;;;;;;;;;4974554;28;21429;-58
2023/11/28 11:43:39;;;;;;;9.88;4.35;;;;;;;;;;4992310;28;20041;-59
2023/11/28 11:46:11;;;;;;;11.90;5.07;;;;;;;;;;5021946;28;20069;-59
2023/11/28 11:48:38;;;;;;;13.38;5.00;;;;;;;;;;5031846;28;20103;-58
2023/11/28 11:51:04;;;;;;;9.05;4.55;;;;;;;;;;5011471;28;20570;-59
2023/11/28 11:53:31;;;;;;;10.45;4.90;;;;;;;;;;5010473;28;20040;-59
2023/11/28 11:55:58;;;;;;;9.80;4.32;;;;;;;;;;5038289;28;21054;-59
2023/11/28 11:58:26;;;;;;;9.35;3.90;;;;;;;;;;5022793;28;20040;-60
2023/11/28 12:00:52;;;;;;;8.80;3.53;;;;;;;;;;5019141;28;20048;-60
2023/11/28 12:03:20;;;;;;;7.22;3.72;;;;;;;;;;5016134;28;20081;-59
2023/11/28 12:06:06;;;;;;;5.78;3.30;;;;;;;;;;5011287;28;20938;-59
2023/11/28 12:08:34;;;;;;;10.02;3.72;;;;;;;;;;5015009;28;20037;-59
2023/11/28 12:11:06;;;;;;;8.68;3.55;;;;;;;;;;5011716;28;20032;-59
2023/11/28 12:13:31;;;;;;;6.45;3.42;;;;;;;;;;5016036;28;20037;-60
2023/11/28 12:16:01;;;;;;;7.05;3.30;;;;;;;;;;5023921;28;20041;-60
2023/11/28 12:18:26;;;;;;;8.00;3.72;;;;;;;;;;5027070;28;20049;-59
2023/11/28 12:20:54;;;;;;;7.18;3.72;;;;;;;;;;5024241;28;20508;-59
2023/11/28 12:23:19;;;;;;;5.35;3.17;;;;;;;;;;5010622;28;20072;-60
2023/11/28 12:25:47;;;;;;;6.13;2.97;;;;;;;;;;5021109;28;20061;-59
2023/11/28 12:28:13;;;;;;;7.43;3.33;;;;;;;;;;5022861;28;20060;-59
2023/11/28 12:30:38;;;;;;;6.93;3.10;;;;;;;;;;5022809;28;20462;-59
2023/11/28 12:33:03;;;;;;;4.78;3.00;;;;;;;;;;5018436;28;20045;-59
2023/11/28 12:35:30;;;;;;;7.07;3.33;;;;;;;;;;5015526;28;20090;-58
2023/11/28 12:37:55;;;;;;;5.45;3.10;;;;;;;;;;5026330;28;20033;-60
2023/11/28 12:40:21;;;;;;;7.60;3.13;;;;;;;;;;4998768;28;20892;-59
2023/11/28 12:42:47;;;;;;;5.38;2.78;;;;;;;;;;5015138;28;20076;-60
2023/11/28 12:45:12;;;;;;;5.68;3.40;;;;;;;;;;5023758;28;20017;-60
2023/11/28 12:47:37;;;;;;;5.90;3.05;;;;;;;;;;5010966;28;20327;-59
2023/11/28 12:50:07;;;;;;;6.32;2.78;;;;;;;;;;5008248;28;20017;-59
2023/11/28 12:52:34;;;;;;;5.90;2.70;;;;;;;;;;5013600;28;20122;-62
2023/11/28 12:55:01;;;;;;;4.22;2.55;;;;;;;;;;5012756;28;20039;-59
2023/11/28 12:57:27;;;;;;;4.53;2.83;;;;;;;;;;5015284;28;20036;-59
2023/11/28 12:59:52;;;;;;;5.50;2.80;;;;;;;;;;5014557;28;20021;-60
2023/11/28 13:02:18;;;;;;;5.28;2.50;;;;;;;;;;5013344;28;20029;-59
2023/11/28 13:04:43;;;;;;;5.60;2.70;;;;;;;;;;5019683;28;20048;-60
2023/11/28 13:07:08;;;;;;;5.22;3.10;;;;;;;;;;5020021;28;20021;-59
2023/11/28 13:09:35;;;;;;;6.43;3.05;;;;;;;;;;5012210;28;20631;-59
2023/11/28 13:12:04;;;;;;;4.55;2.55;;;;;;;;;;5020237;28;20013;-60
2023/11/28 13:14:29;;;;;;;5.20;2.90;;;;;;;;;;5008587;28;20087;-61
2023/11/28 13:16:58;;;;;;;5.70;2.85;;;;;;;;;;5015174;28;20085;-59
2023/11/28 13:19:23;;;;;;;4.88;2.88;;;;;;;;;;5011856;28;20120;-58
2023/11/28 13:21:50;;;;;;;4.72;2.45;;;;;;;;;;5020443;28;20108;-62
2023/11/28 13:24:15;;;;;;;4.95;2.80;;;;;;;;;;5015364;28;20029;-59
2023/11/28 13:26:44;;;;;;;5.20;2.63;;;;;;;;;;5015079;28;20079;-57
2023/11/28 13:29:10;;;;;;;5.22;2.60;;;;;;;;;;5010479;28;20040;-58
2023/11/28 13:31:41;;;;;;;4.30;2.63;;;;;;;;;;5017280;28;20038;-58
2023/11/28 13:34:12;;;;;;;3.88;2.80;;;;;;;;;;5011534;28;20052;-59
2023/11/28 13:36:37;;;;;;;3.97;2.40;;;;;;;;;;5013854;28;20479;-58
2023/11/28 13:39:02;;;;;;;4.10;2.47;;;;;;;;;;5028450;28;20097;-60
2023/11/28 13:41:28;;;;;;;4.75;2.30;;;;;;;;;;5017217;28;20034;-59
2023/11/28 13:43:53;;;;;;;4.03;2.42;;;;;;;;;;5013340;28;20430;-59
2023/11/28 13:46:19;;;;;;;4.53;2.35;;;;;;;;;;5012868;28;20098;-60
2023/11/28 13:48:44;;;;;;;4.28;2.33;;;;;;;;;;5009578;28;20515;-59
2023/11/28 13:51:12;;;;;;;5.10;2.95;;;;;;;;;;5007319;28;20038;-60
2023/11/28 13:53:37;;;;;;;4.15;2.50;;;;;;;;;;5018160;28;20037;-60
2023/11/28 13:56:02;;;;;;;4.75;2.42;;;;;;;;;;5019499;28;20064;-60
2023/11/28 13:58:28;;;;;;;2.97;2.22;;;;;;;;;;5010511;28;20060;-59
2023/11/28 14:00:58;;;;;;;5.63;2.40;;;;;;;;;;5013741;28;20033;-59
2023/11/28 14:03:23;;;;;;;4.50;2.60;;;;;;;;;;5018617;28;20103;-59
2023/11/28 14:05:49;;;;;;;4.07;2.38;;;;;;;;;;5016944;28;20045;-58
2023/11/28 14:08:16;;;;;;;4.63;2.53;;;;;;;;;;5015346;28;20037;-59
2023/11/28 14:10:42;;;;;;;5.63;2.58;;;;;;;;;;5012182;28;20044;-60
2023/11/28 14:13:08;;;;;;;4.18;2.42;;;;;;;;;;5014005;28;20029;-58
2023/11/28 14:15:33;;;;;;;3.85;2.50;;;;;;;;;;5021832;28;20041;-58
2023/11/28 14:17:58;;;;;;;3.72;2.00;;;;;;;;;;5011709;28;20104;-58
2023/11/28 14:20:26;;;;;;;3.45;2.10;;;;;;;;;;5010702;28;20034;-60
2023/11/28 14:22:52;;;;;;;225.25;26.15;;;;;;;;;;5012151;28;20042;-60
2023/11/28 14:25:19;;;;;;;39.58;7.05;;;;;;;;;;5023214;28;20095;-60
2023/11/28 14:27:44;;;;;;;18.25;5.03;;;;;;;;;;5014684;28;20293;-61
2023/11/28 14:30:09;;;;;;;14.52;4.22;;;;;;;;;;5014123;28;20395;-58
2023/11/28 14:32:36;;;;;;;14.40;3.72;;;;;;;;;;5039050;28;20040;-60
2023/11/28 14:35:06;;;;;;;13.48;3.90;;;;;;;;;;5032704;28;20030;-60
2023/11/28 14:37:32;;;;;;;9.55;3.95;;;;;;;;;;5038020;28;20506;-61